Time;durP1;ratioP1;P1;durP2;ratioP2;P2;SDS_P1;SDS_P2;PMS_P1;PMS_P2;Temp;Humidity;BMP_temperature;BMP_pressure;BME280_temperature;BME280_humidity;BME280_pressure;Samples;Min_cycle;Max_cycle;Signal;HPM_P1;HPM_P2
2022/08/19 00:01:21;;;;;;;1.60;0.80;;;23.70;68.80;;;;;;5090641;28;20032;-64
2022/08/19 00:03:46;;;;;;;3.40;1.20;;;23.70;68.80;;;;;;5092434;28;20555;-64
2022/08/19 00:06:12;;;;;;;2.45;1.30;;;23.70;68.80;;;;;;5092210;28;20101;-64
2022/08/19 00:08:38;;;;;;;2.05;1.17;;;23.70;68.80;;;;;;5091315;28;20067;-64
2022/08/19 00:11:03;;;;;;;2.38;1.00;;;23.70;68.80;;;;;;5092456;28;20040;-64
2022/08/19 00:13:29;;;;;;;1.88;1.20;;;23.70;68.80;;;;;;5092240;28;20476;-65
2022/08/19 00:15:55;;;;;;;2.67;1.10;;;23.70;68.80;;;;;;5091604;28;20044;-64
2022/08/19 00:18:21;;;;;;;1.63;1.10;;;23.70;68.80;;;;;;5091738;28;20052;-64
2022/08/19 00:20:46;;;;;;;2.92;1.23;;;23.70;68.80;;;;;;5091919;28;20040;-64
2022/08/19 00:23:12;;;;;;;2.38;1.20;;;23.70;68.80;;;;;;5091141;28;20044;-64
2022/08/19 00:25:37;;;;;;;2.00;1.00;;;23.70;68.80;;;;;;5092165;28;20036;-64
2022/08/19 00:28:04;;;;;;;3.88;1.00;;;23.70;68.80;;;;;;5090782;28;20445;-64
2022/08/19 00:30:29;;;;;;;2.40;1.15;;;23.70;68.80;;;;;;5089613;28;20131;-64
2022/08/19 00:32:56;;;;;;;2.10;1.33;;;23.60;68.80;;;;;;5092381;28;20214;-64
2022/08/19 00:35:21;;;;;;;1.50;0.98;;;23.70;68.80;;;;;;5091838;28;20141;-64
2022/08/19 00:37:50;;;;;;;2.53;1.50;;;23.70;68.80;;;;;;5091200;28;20654;-64
2022/08/19 00:40:15;;;;;;;1.80;1.10;;;23.60;68.80;;;;;;5090023;28;20135;-64
2022/08/19 00:42:41;;;;;;;2.00;1.45;;;23.70;68.80;;;;;;5091243;28;20124;-64
2022/08/19 00:45:16;;;;;;;2.03;1.10;;;23.60;68.80;;;;;;5092118;28;20044;-64
2022/08/19 00:47:42;;;;;;;2.70;1.10;;;23.60;68.80;;;;;;5091677;28;20044;-64
2022/08/19 00:50:08;;;;;;;2.42;1.33;;;23.60;68.80;;;;;;5090923;28;20044;-64
2022/08/19 00:52:36;;;;;;;3.90;1.30;;;23.60;68.80;;;;;;5091557;28;20472;-64
2022/08/19 00:55:03;;;;;;;2.10;1.10;;;23.60;68.80;;;;;;5107955;28;20044;-64
2022/08/19 00:57:38;;;;;;;1.50;0.90;;;23.60;68.80;;;;;;5089631;28;20044;-64
2022/08/19 01:00:06;;;;;;;1.88;1.10;;;23.60;68.80;;;;;;5090482;28;20044;-64
2022/08/19 01:02:32;;;;;;;2.67;1.58;;;23.60;69.40;;;;;;5091268;28;20055;-64
2022/08/19 01:04:59;;;;;;;1.88;1.05;;;23.60;68.80;;;;;;5090013;28;20048;-64
2022/08/19 01:07:24;;;;;;;2.22;1.20;;;23.60;68.80;;;;;;5090331;28;20066;-64
2022/08/19 01:09:50;;;;;;;1.98;1.20;;;23.60;68.80;;;;;;5073698;28;20048;-64
2022/08/19 01:12:15;;;;;;;2.05;1.00;;;23.60;68.80;;;;;;5091500;28;20044;-64
2022/08/19 01:14:41;;;;;;;2.22;1.30;;;23.60;68.80;;;;;;5094577;28;20036;-64
2022/08/19 01:17:10;;;;;;;1.67;1.13;;;23.60;68.80;;;;;;5094002;28;20044;-64
2022/08/19 01:19:37;;;;;;;2.15;1.02;;;23.60;68.70;;;;;;5093153;28;20069;-64
2022/08/19 01:22:30;;;;;;;2.45;1.20;;;23.60;68.80;;;;;;5094338;28;20036;-64
2022/08/19 01:24:55;;;;;;;2.13;1.20;;;23.60;69.30;;;;;;5092017;28;20048;-64
2022/08/19 01:27:21;;;;;;;4.03;1.00;;;23.60;68.80;;;;;;5093509;28;20589;-64
2022/08/19 01:29:47;;;;;;;2.20;1.00;;;23.60;68.80;;;;;;5094727;28;20492;-64
2022/08/19 01:32:14;;;;;;;1.77;1.00;;;23.60;68.80;;;;;;5094407;28;20052;-64
2022/08/19 01:34:40;;;;;;;1.83;1.15;;;23.60;68.80;;;;;;5095296;28;20616;-64
2022/08/19 01:37:07;;;;;;;2.25;1.15;;;23.60;68.80;;;;;;5095398;28;20075;-64
2022/08/19 01:39:33;;;;;;;2.17;1.00;;;23.50;68.80;;;;;;5093929;28;20047;-64
2022/08/19 01:42:02;;;;;;;1.85;1.10;;;23.60;68.80;;;;;;5094994;28;20044;-64
2022/08/19 01:44:28;;;;;;;2.20;1.00;;;23.50;68.80;;;;;;5094465;28;20052;-64
2022/08/19 01:46:53;;;;;;;1.33;1.05;;;23.50;68.80;;;;;;5094156;28;20042;-64
2022/08/19 01:49:21;;;;;;;2.97;1.17;;;23.50;68.80;;;;;;5094741;28;20130;-64
2022/08/19 01:51:47;;;;;;;2.28;1.10;;;23.50;68.80;;;;;;5094992;28;20040;-64
2022/08/19 01:54:13;;;;;;;1.90;0.90;;;23.50;68.80;;;;;;5092779;28;20048;-64
2022/08/19 01:56:39;;;;;;;2.25;1.30;;;23.50;68.80;;;;;;5093723;28;20048;-64
2022/08/19 01:59:09;;;;;;;1.67;0.90;;;23.50;68.80;;;;;;5094650;28;20074;-63
2022/08/19 02:01:34;;;;;;;1.55;1.00;;;23.50;68.80;;;;;;5091677;28;20483;-64
2022/08/19 02:04:03;;;;;;;2.95;1.20;;;23.50;68.80;;;;;;5091784;28;20046;-64
2022/08/19 02:06:28;;;;;;;;;;;23.50;68.80;;;;;;5094421;28;20514;-63
2022/08/19 02:08:54;;;;;;;2.30;1.08;;;23.50;68.80;;;;;;5093484;28;19959;-64
2022/08/19 02:11:22;;;;;;;1.60;1.10;;;23.50;68.90;;;;;;5093830;28;20044;-64
2022/08/19 02:13:49;;;;;;;1.73;0.98;;;23.50;68.90;;;;;;5093816;28;20505;-64
2022/08/19 02:16:15;;;;;;;3.97;1.25;;;23.50;68.90;;;;;;5091865;28;20044;-64
2022/08/19 02:18:41;;;;;;;1.60;1.08;;;23.50;68.90;;;;;;5094054;28;20055;-64
2022/08/19 02:21:07;;;;;;;1.95;0.90;;;23.50;68.90;;;;;;5093658;28;20040;-64
2022/08/19 02:23:32;;;;;;;2.67;0.93;;;23.50;68.90;;;;;;5092982;28;20044;-64
2022/08/19 02:25:58;;;;;;;2.10;1.08;;;23.50;68.90;;;;;;5094039;28;20100;-64
2022/08/19 02:28:23;;;;;;;1.58;0.90;;;23.50;69.00;;;;;;5093230;28;20112;-64
2022/08/19 02:30:49;;;;;;;2.42;0.95;;;23.40;68.90;;;;;;5093836;28;20056;-64
2022/08/19 02:33:15;;;;;;;1.60;1.00;;;23.40;68.90;;;;;;5093691;28;20040;-64
2022/08/19 02:35:44;;;;;;;1.70;1.00;;;23.40;68.90;;;;;;5093169;28;20048;-64
2022/08/19 02:38:25;;;;;;;2.10;0.98;;;23.40;68.90;;;;;;5093775;28;20101;-64
2022/08/19 02:41:13;;;;;;;1.58;1.00;;;23.50;69.00;;;;;;5093701;28;20392;-64
2022/08/19 02:43:40;;;;;;;1.90;1.15;;;23.40;68.90;;;;;;5093247;28;20205;-64
2022/08/19 02:46:31;;;;;;;1.30;0.90;;;23.40;68.90;;;;;;5093589;28;20048;-64
2022/08/19 02:49:00;;;;;;;2.03;1.10;;;23.40;68.80;;;;;;5092254;28;20052;-64
2022/08/19 02:51:28;;;;;;;2.45;1.10;;;23.40;68.90;;;;;;5091093;28;20067;-64
2022/08/19 02:53:53;;;;;;;1.30;0.90;;;23.40;68.90;;;;;;5092457;28;20124;-64
2022/08/19 02:56:19;;;;;;;2.00;1.17;;;23.40;68.90;;;;;;5090630;28;20083;-64
2022/08/19 02:58:45;;;;;;;2.00;0.98;;;23.40;68.90;;;;;;5093827;28;20040;-64
2022/08/19 03:01:11;;;;;;;1.70;1.00;;;23.40;68.90;;;;;;5093579;28;20082;-64
2022/08/19 03:03:37;;;;;;;1.45;1.00;;;23.40;69.00;;;;;;5092278;28;20119;-64
2022/08/19 03:06:12;;;;;;;1.70;0.90;;;23.40;68.90;;;;;;5093103;28;20441;-64
2022/08/19 03:08:38;;;;;;;1.40;0.90;;;23.40;68.90;;;;;;5091868;28;20427;-64
2022/08/19 03:11:04;;;;;;;2.55;1.30;;;23.40;68.90;;;;;;5092519;28;20090;-64
2022/08/19 03:13:29;;;;;;;2.15;1.08;;;23.40;69.50;;;;;;5091221;28;20134;-64
2022/08/19 03:15:55;;;;;;;1.38;0.88;;;23.40;68.90;;;;;;5093020;28;20109;-64
2022/08/19 03:18:21;;;;;;;1.95;1.08;;;23.40;68.90;;;;;;5092008;28;20050;-64
2022/08/19 03:20:48;;;;;;;2.22;1.25;;;23.40;68.90;;;;;;5093392;28;20048;-64
2022/08/19 03:23:14;;;;;;;1.67;0.95;;;23.40;68.90;;;;;;5092816;28;20425;-64
2022/08/19 03:25:43;;;;;;;1.77;0.80;;;23.40;68.90;;;;;;5092291;28;20044;-64
2022/08/19 03:28:12;;;;;;;1.27;0.88;;;23.40;68.90;;;;;;5092953;28;20072;-64
2022/08/19 03:30:40;;;;;;;1.33;1.10;;;23.40;68.90;;;;;;5092272;28;20480;-65
2022/08/19 03:33:06;;;;;;;1.58;0.95;;;23.40;68.90;;;;;;5092306;28;20503;-64
2022/08/19 03:35:32;;;;;;;2.65;1.13;;;23.40;68.90;;;;;;5092438;28;20044;-64
2022/08/19 03:37:59;;;;;;;1.48;1.02;;;23.40;68.90;;;;;;5093007;28;20040;-64
2022/08/19 03:40:25;;;;;;;1.58;1.10;;;23.40;68.90;;;;;;5091936;28;20044;-65
2022/08/19 03:42:50;;;;;;;1.70;0.98;;;23.40;68.90;;;;;;5092895;28;20051;-64
2022/08/19 03:45:16;;;;;;;1.73;0.90;;;23.30;68.80;;;;;;5092095;28;20558;-64
2022/08/19 03:47:41;;;;;;;1.45;1.00;;;23.30;68.90;;;;;;5091922;28;20040;-64
2022/08/19 03:50:08;;;;;;;1.70;0.85;;;23.30;68.90;;;;;;5092357;28;20399;-64
2022/08/19 03:52:35;;;;;;;1.38;0.95;;;23.30;68.90;;;;;;5091510;28;20067;-64
2022/08/19 03:55:01;;;;;;;1.83;0.95;;;23.30;68.90;;;;;;5092739;28;20051;-65
2022/08/19 03:57:27;;;;;;;1.40;0.90;;;23.30;68.90;;;;;;5090977;28;20085;-64
2022/08/19 03:59:52;;;;;;;2.03;1.08;;;23.30;68.90;;;;;;5091572;28;20454;-64
2022/08/19 04:02:18;;;;;;;1.27;0.82;;;23.30;68.90;;;;;;5091922;28;20538;-64
2022/08/19 04:04:43;;;;;;;1.10;0.90;;;23.30;68.90;;;;;;5091552;28;20459;-64
2022/08/19 04:07:09;;;;;;;1.23;0.80;;;23.30;68.90;;;;;;5091094;28;20078;-64
2022/08/19 04:09:36;;;;;;;1.85;1.10;;;23.30;68.90;;;;;;5091675;28;20032;-64
2022/08/19 04:12:02;;;;;;;2.47;0.85;;;23.30;68.90;;;;;;5092269;28;20105;-64
2022/08/19 04:14:31;;;;;;;1.20;0.88;;;23.30;68.90;;;;;;5089900;28;20503;-64
2022/08/19 04:16:58;;;;;;;1.30;1.02;;;23.30;68.90;;;;;;5092432;28;20044;-64
2022/08/19 04:19:23;;;;;;;1.20;0.90;;;23.30;68.90;;;;;;5092064;28;20052;-64
2022/08/19 04:21:50;;;;;;;1.40;0.90;;;23.30;68.90;;;;;;5091386;28;20051;-65
2022/08/19 04:24:16;;;;;;;1.80;1.00;;;23.30;68.90;;;;;;5091870;28;20036;-64
2022/08/19 04:26:41;;;;;;;1.67;1.00;;;23.20;68.80;;;;;;5092200;28;20119;-64
2022/08/19 04:29:13;;;;;;;1.83;1.00;;;23.20;68.80;;;;;;5091240;28;20491;-64
2022/08/19 04:31:38;;;;;;;1.42;0.82;;;23.30;68.80;;;;;;5092335;28;20087;-64
2022/08/19 04:34:06;;;;;;;1.70;1.00;;;23.20;68.80;;;;;;5092064;28;20071;-64
2022/08/19 04:36:34;;;;;;;1.67;0.93;;;23.20;68.80;;;;;;5091041;28;20392;-64
2022/08/19 04:39:04;;;;;;;1.65;0.82;;;23.20;68.80;;;;;;5092366;28;20032;-64
2022/08/19 04:44:17;;;;;;;1.38;0.90;;;23.20;68.80;;;;;;5091830;28;20044;-64
2022/08/19 04:46:44;;;;;;;1.80;0.80;;;23.20;68.80;;;;;;5091924;28;20051;-64
2022/08/19 04:49:09;;;;;;;1.40;0.80;;;23.20;68.80;;;;;;5094108;28;20500;-64
2022/08/19 04:51:35;;;;;;;2.13;1.00;;;23.20;68.80;;;;;;5095744;28;20123;-64
2022/08/19 04:54:01;;;;;;;1.95;0.80;;;23.20;68.80;;;;;;5095815;28;20121;-63
2022/08/19 04:56:27;;;;;;;1.83;1.20;;;23.20;68.80;;;;;;5093531;28;20048;-65
2022/08/19 04:58:53;;;;;;;1.55;1.00;;;23.20;68.80;;;;;;5095534;28;20454;-64
2022/08/19 05:01:21;;;;;;;1.85;1.05;;;23.20;68.80;;;;;;5095350;28;20055;-64
2022/08/19 05:03:47;;;;;;;1.45;0.75;;;23.20;69.40;;;;;;5093667;28;20036;-64
2022/08/19 05:06:14;;;;;;;1.63;0.98;;;23.20;68.80;;;;;;5095648;28;20040;-64
2022/08/19 05:08:43;;;;;;;1.50;1.17;;;23.20;68.80;;;;;;5095703;28;20124;-67
2022/08/19 05:11:30;;;;;;;1.73;0.80;;;23.20;68.80;;;;;;5094922;28;20040;-65
2022/08/19 05:13:55;;;;;;;2.00;1.00;;;23.20;68.80;;;;;;5095424;28;20043;-65
2022/08/19 05:16:21;;;;;;;4.78;0.90;;;23.20;68.80;;;;;;5095122;28;20388;-65
2022/08/19 05:24:15;;;;;;;3.28;1.10;;;23.20;69.10;;;;;;5092816;28;20517;-64
2022/08/19 05:26:46;;;;;;;5.45;1.35;;;23.20;68.90;;;;;;5094368;28;20127;-65
2022/08/19 05:29:12;;;;;;;14.05;1.70;;;23.20;68.90;;;;;;5093981;28;20059;-65
2022/08/19 05:31:41;;;;;;;6.60;1.30;;;23.20;69.10;;;;;;5094138;28;20119;-65
2022/08/19 05:34:06;;;;;;;5.50;1.55;;;23.20;69.10;;;;;;5095214;28;20040;-65
2022/08/19 05:36:40;;;;;;;5.55;1.80;;;23.20;69.20;;;;;;5094876;28;20122;-65
2022/08/19 05:39:07;;;;;;;4.43;1.60;;;23.30;69.40;;;;;;5093010;28;20044;-65
2022/08/19 05:41:32;;;;;;;5.15;1.50;;;23.30;69.40;;;;;;5093703;28;20048;-64
2022/08/19 05:44:00;;;;;;;6.90;1.63;;;23.30;69.50;;;;;;5095189;28;20039;-65
2022/08/19 05:46:26;;;;;;;5.28;1.60;;;23.30;69.60;;;;;;5092877;28;20071;-63
2022/08/19 05:48:51;;;;;;;7.38;1.65;;;23.30;69.50;;;;;;5093553;28;20468;-64
2022/08/19 05:51:17;;;;;;;7.65;1.75;;;23.30;69.60;;;;;;5094584;28;20044;-64
2022/08/19 05:53:45;;;;;;;9.52;1.67;;;23.30;69.70;;;;;;5092931;28;20036;-65
2022/08/19 05:56:12;;;;;;;8.23;1.58;;;23.30;69.70;;;;;;5093398;28;20052;-65
2022/08/19 05:58:38;;;;;;;3.67;1.38;;;23.30;69.80;;;;;;5094242;28;20055;-66
2022/08/19 06:01:05;;;;;;;6.20;1.67;;;23.30;69.80;;;;;;5093821;28;20048;-66
2022/08/19 06:03:32;;;;;;;7.73;1.57;;;23.30;69.90;;;;;;5094579;28;20075;-66
2022/08/19 06:05:59;;;;;;;3.35;1.55;;;23.30;69.80;;;;;;5095207;28;20044;-65
2022/08/19 06:08:25;;;;;;;6.55;1.63;;;23.30;69.70;;;;;;5093336;28;20044;-65
2022/08/19 06:10:50;;;;;;;6.50;1.80;;;23.30;69.80;;;;;;5094439;28;20051;-64
2022/08/19 06:13:17;;;;;;;3.90;1.55;;;23.30;69.70;;;;;;5092394;28;20130;-63
2022/08/19 06:15:44;;;;;;;5.03;1.52;;;23.30;69.70;;;;;;5094870;28;20089;-65
2022/08/19 06:18:09;;;;;;;3.33;1.67;;;23.30;69.70;;;;;;5094607;28;20122;-66
2022/08/19 06:20:35;;;;;;;6.97;2.13;;;23.30;69.70;;;;;;5093783;28;20131;-65
2022/08/19 06:23:00;;;;;;;8.07;2.08;;;23.30;69.60;;;;;;5094703;28;20127;-67
2022/08/19 06:25:26;;;;;;;4.28;1.42;;;23.30;69.50;;;;;;5094019;28;20051;-65
2022/08/19 06:27:52;;;;;;;4.28;1.73;;;23.30;69.40;;;;;;5093867;28;20044;-64
2022/08/19 06:30:18;;;;;;;4.38;1.50;;;23.30;69.40;;;;;;5093936;28;20063;-64
2022/08/19 06:32:43;;;;;;;4.70;1.63;;;23.30;69.40;;;;;;5094329;28;20036;-65
2022/08/19 06:35:10;;;;;;;8.90;2.08;;;23.30;69.40;;;;;;5093684;28;20040;-65
2022/08/19 06:37:36;;;;;;;5.40;1.40;;;23.30;69.40;;;;;;5092761;28;20048;-64
2022/08/19 06:40:02;;;;;;;6.53;1.52;;;23.30;69.40;;;;;;5092836;28;20040;-65
2022/08/19 06:42:28;;;;;;;6.97;1.67;;;23.30;69.40;;;;;;5092794;28;20521;-65
2022/08/19 06:44:54;;;;;;;7.10;1.60;;;23.30;69.50;;;;;;5094341;28;20093;-65
2022/08/19 06:47:20;;;;;;;3.50;1.35;;;23.30;69.70;;;;;;5093560;28;20585;-65
2022/08/19 06:49:46;;;;;;;5.35;1.77;;;23.30;69.70;;;;;;5093520;28;20032;-65
2022/08/19 06:52:12;;;;;;;6.40;1.73;;;23.30;69.80;;;;;;5094260;28;20395;-66
2022/08/19 06:54:39;;;;;;;3.33;1.55;;;23.30;69.80;;;;;;5092756;28;20051;-65
2022/08/19 06:57:04;;;;;;;3.58;1.60;;;23.30;69.80;;;;;;5093442;28;20044;-65
2022/08/19 06:59:32;;;;;;;5.60;1.40;;;23.30;69.80;;;;;;5093937;28;20063;-65
2022/08/19 07:01:58;;;;;;;4.57;1.57;;;23.40;69.80;;;;;;5092674;28;20036;-66
2022/08/19 07:04:26;;;;;;;4.45;1.70;;;23.30;69.80;;;;;;5092751;28;20298;-66
2022/08/19 07:07:09;;;;;;;2.72;1.73;;;23.40;69.80;;;;;;5092912;28;20468;-65
2022/08/19 07:09:40;;;;;;;3.55;1.77;;;23.40;69.90;;;;;;5092353;28;20487;-66
2022/08/19 07:12:07;;;;;;;5.70;1.70;;;23.40;69.90;;;;;;5092447;28;20060;-66
2022/08/19 07:14:35;;;;;;;5.80;1.73;;;23.40;69.90;;;;;;5093461;28;20072;-64
2022/08/19 07:17:00;;;;;;;;;;;23.40;69.90;;;;;;5092012;28;20055;-64
2022/08/19 07:19:27;;;;;;;3.80;1.38;;;23.40;69.90;;;;;;5093345;28;19920;-64
2022/08/19 07:21:52;;;;;;;8.00;1.60;;;23.40;69.90;;;;;;5093373;28;20479;-65
2022/08/19 07:24:23;;;;;;;3.40;1.42;;;23.40;69.90;;;;;;5092556;28;20046;-65
2022/08/19 07:26:49;;;;;;;3.20;1.80;;;23.40;69.90;;;;;;5093777;28;20043;-64
2022/08/19 07:29:16;;;;;;;4.18;1.65;;;23.40;69.90;;;;;;5091590;28;20064;-64
2022/08/19 07:31:41;;;;;;;5.18;1.80;;;23.40;69.90;;;;;;5092468;28;20384;-64
2022/08/19 07:34:08;;;;;;;3.95;1.90;;;23.40;69.70;;;;;;5093513;28;20119;-64
2022/08/19 07:36:35;;;;;;;7.35;2.20;;;23.40;69.60;;;;;;5092880;28;20051;-64
2022/08/19 07:39:06;;;;;;;10.38;2.45;;;23.40;69.60;;;;;;5092555;28;20051;-67
2022/08/19 07:41:32;;;;;;;8.30;2.78;;;23.40;69.80;;;;;;5092829;28;20487;-65
2022/08/19 07:44:03;;;;;;;5.63;2.15;;;23.40;69.90;;;;;;5093126;28;20047;-64
2022/08/19 07:46:32;;;;;;;9.38;2.92;;;23.40;70.00;;;;;;5090871;28;20048;-64
2022/08/19 07:49:00;;;;;;;5.45;1.77;;;23.40;70.00;;;;;;5092276;28;20039;-65
2022/08/19 07:51:25;;;;;;;7.63;2.53;;;23.40;70.00;;;;;;5092291;28;20132;-64
2022/08/19 07:53:51;;;;;;;6.57;2.20;;;23.40;70.00;;;;;;5092355;28;20085;-65
2022/08/19 07:56:17;;;;;;;6.68;2.08;;;23.50;70.00;;;;;;5092745;28;20093;-64
2022/08/19 07:58:44;;;;;;;5.97;1.80;;;23.50;70.00;;;;;;5092265;28;20040;-64
2022/08/19 08:01:12;;;;;;;5.28;2.00;;;23.50;70.00;;;;;;5089909;28;20048;-65
2022/08/19 08:09:11;;;;;;;4.78;1.83;;;23.50;70.00;;;;;;5091846;28;20400;-66
2022/08/19 08:11:54;;;;;;;5.13;1.90;;;23.50;70.00;;;;;;5091477;28;20051;-66
2022/08/19 08:14:22;;;;;;;5.07;1.90;;;23.60;70.00;;;;;;5091167;28;20072;-66
2022/08/19 08:16:50;;;;;;;3.65;2.22;;;23.60;70.00;;;;;;5091901;28;20495;-66
2022/08/19 08:19:17;;;;;;;5.80;1.95;;;23.60;70.00;;;;;;5090509;28;20055;-66
2022/08/19 08:21:42;;;;;;;4.38;1.90;;;23.60;70.00;;;;;;5091627;28;20118;-67
2022/08/19 08:24:08;;;;;;;6.80;2.10;;;23.60;69.90;;;;;;5096707;28;20125;-66
2022/08/19 08:26:34;;;;;;;5.88;2.10;;;23.60;70.00;;;;;;5095423;28;20108;-66
2022/08/19 08:28:59;;;;;;;3.58;1.55;;;23.60;70.00;;;;;;5095332;28;20044;-66
2022/08/19 08:31:25;;;;;;;5.30;1.65;;;23.60;70.00;;;;;;5094783;28;20112;-66
2022/08/19 08:33:50;;;;;;;5.03;2.10;;;23.60;70.00;;;;;;5094226;28;20048;-65
2022/08/19 08:36:16;;;;;;;9.40;2.20;;;23.60;69.90;;;;;;5094880;28;20052;-66
2022/08/19 08:38:45;;;;;;;4.78;1.80;;;23.70;70.00;;;;;;5096517;28;20050;-65
2022/08/19 08:41:19;;;;;;;6.10;2.38;;;23.70;70.00;;;;;;5095567;28;20044;-64
2022/08/19 08:43:45;;;;;;;3.70;1.65;;;23.70;70.00;;;;;;5094799;28;20044;-65
2022/08/19 08:46:28;;;;;;;5.07;2.00;;;23.70;70.00;;;;;;5094655;28;20478;-65
2022/08/19 08:49:08;;;;;;;6.57;2.03;;;23.70;70.00;;;;;;5094250;28;20040;-65
2022/08/19 08:51:47;;;;;;;6.25;1.98;;;23.70;70.00;;;;;;5094721;28;20044;-65
2022/08/19 08:54:14;;;;;;;4.53;1.75;;;23.70;70.00;;;;;;5095835;28;20485;-65
2022/08/19 08:56:42;;;;;;;7.53;2.65;;;23.70;69.80;;;;;;5094239;28;20047;-65
2022/08/19 08:59:20;;;;;;;9.75;2.85;;;23.70;69.80;;;;;;5094523;28;20042;-65
2022/08/19 09:01:46;;;;;;;9.25;2.40;;;23.70;70.00;;;;;;5094007;28;20566;-66
2022/08/19 09:04:11;;;;;;;5.97;2.10;;;23.70;70.10;;;;;;5095042;28;20119;-65
2022/08/19 09:06:42;;;;;;;7.47;2.28;;;23.70;70.20;;;;;;5094284;28;20034;-65
2022/08/19 09:09:17;;;;;;;6.95;2.70;;;23.70;70.20;;;;;;5094099;28;20036;-65
2022/08/19 09:11:56;;;;;;;7.78;2.47;;;23.70;70.30;;;;;;5094393;28;20146;-65
2022/08/19 09:14:41;;;;;;;5.45;2.33;;;23.70;70.30;;;;;;5094120;28;20051;-65
2022/08/19 09:17:08;;;;;;;6.53;2.40;;;23.70;70.30;;;;;;5094942;28;20040;-65
2022/08/19 09:19:35;;;;;;;5.13;2.38;;;23.70;70.30;;;;;;5095168;28;20044;-66
2022/08/19 09:22:01;;;;;;;8.68;2.63;;;23.80;70.40;;;;;;5095621;28;20044;-68
2022/08/19 09:24:26;;;;;;;9.50;2.97;;;23.70;70.20;;;;;;5094493;28;20054;-65
2022/08/19 09:26:52;;;;;;;11.13;3.13;;;23.80;70.30;;;;;;5095163;28;20052;-65
2022/08/19 09:29:18;;;;;;;11.02;3.63;;;23.80;70.20;;;;;;5094638;28;20495;-65
2022/08/19 09:31:43;;;;;;;8.65;3.38;;;23.80;70.10;;;;;;5094315;28;20073;-65
2022/08/19 09:34:09;;;;;;;9.35;4.03;;;23.70;70.00;;;;;;5094642;28;20072;-65
2022/08/19 09:36:38;;;;;;;11.32;4.38;;;23.80;70.00;;;;;;5094608;28;20044;-65
2022/08/19 09:39:04;;;;;;;9.00;4.28;;;23.70;69.90;;;;;;5094145;28;20043;-65
2022/08/19 09:41:29;;;;;;;8.55;4.55;;;23.70;69.80;;;;;;5094592;28;20067;-65
2022/08/19 09:43:56;;;;;;;8.18;4.28;;;23.80;69.70;;;;;;5095257;28;20074;-64
2022/08/19 09:46:22;;;;;;;13.98;5.10;;;23.80;69.60;;;;;;5094168;28;20048;-65
2022/08/19 09:48:48;;;;;;;8.07;4.43;;;23.80;69.70;;;;;;5094932;28;20051;-63
2022/08/19 09:51:15;;;;;;;10.23;4.50;;;23.70;69.40;;;;;;5093780;28;20052;-63
2022/08/19 09:53:41;;;;;;;7.25;4.47;;;23.80;69.40;;;;;;5092982;28;20040;-61
2022/08/19 09:56:06;;;;;;;7.95;4.43;;;23.70;69.10;;;;;;5093277;28;20048;-64
2022/08/19 09:58:32;;;;;;;7.22;3.60;;;23.70;68.80;;;;;;5093627;28;20032;-64
2022/08/19 10:00:59;;;;;;;11.73;4.90;;;23.80;68.60;;;;;;5094707;28;20035;-64
2022/08/19 10:03:25;;;;;;;7.53;4.15;;;23.70;68.20;;;;;;5094178;28;20038;-64
2022/08/19 10:05:50;;;;;;;9.30;4.38;;;23.70;68.00;;;;;;5093314;28;20064;-64
2022/08/19 10:08:18;;;;;;;5.45;3.65;;;23.70;68.00;;;;;;5094325;28;20079;-64
2022/08/19 10:10:43;;;;;;;7.50;4.43;;;23.70;67.90;;;;;;5094520;28;20095;-64
2022/08/19 10:13:09;;;;;;;5.75;4.13;;;23.70;67.90;;;;;;5093881;28;20039;-65
2022/08/19 10:15:35;;;;;;;6.43;4.22;;;23.80;67.80;;;;;;5094170;28;20051;-64
2022/08/19 10:18:01;;;;;;;7.63;4.80;;;23.80;67.70;;;;;;5094491;28;20036;-64
2022/08/19 10:20:26;;;;;;;11.07;6.05;;;23.80;67.40;;;;;;5093274;28;20083;-65
2022/08/19 10:22:52;;;;;;;7.20;5.50;;;23.70;67.10;;;;;;5092910;28;20063;-66
2022/08/19 10:25:17;;;;;;;8.77;5.40;;;23.70;66.80;;;;;;5093582;28;20051;-66
2022/08/19 10:27:43;;;;;;;7.60;5.32;;;23.70;66.60;;;;;;5093312;28;20051;-66
2022/08/19 10:30:09;;;;;;;7.18;4.80;;;23.70;66.50;;;;;;5094014;28;20055;-66
2022/08/19 10:32:35;;;;;;;6.45;4.53;;;23.70;66.50;;;;;;5092485;28;20090;-67
2022/08/19 10:35:01;;;;;;;7.95;5.00;;;23.70;66.40;;;;;;5093244;28;20040;-66
2022/08/19 10:37:27;;;;;;;5.38;4.10;;;23.70;66.30;;;;;;5093884;28;20039;-66
2022/08/19 10:39:52;;;;;;;7.10;4.70;;;23.70;66.30;;;;;;5093959;28;20547;-66
2022/08/19 10:42:18;;;;;;;6.93;4.43;;;23.70;66.30;;;;;;5092993;28;20048;-72
2022/08/19 10:44:44;;;;;;;9.43;5.88;;;23.70;66.40;;;;;;5091594;28;20044;-58
2022/08/19 10:47:10;;;;;;;8.10;4.70;;;23.70;66.30;;;;;;5094016;28;20048;-58
2022/08/19 10:52:33;;;;;;;8.43;5.75;;;23.80;66.30;;;;;;5092630;28;20051;-70
2022/08/19 10:52:33;;;;;;;7.88;4.82;;;23.80;66.30;;;;;;5093371;28;20048;-70
2022/08/19 10:57:47;;;;;;;8.27;5.30;;;23.90;66.30;;;;;;5092339;28;20044;-75
2022/08/19 11:00:13;;;;;;;6.22;4.70;;;23.90;66.20;;;;;;5092555;28;20134;-72
2022/08/19 11:02:38;;;;;;;6.63;4.32;;;23.90;66.10;;;;;;5092565;28;20040;-70
2022/08/19 11:05:06;;;;;;;8.35;5.28;;;23.90;66.10;;;;;;5093644;28;20040;-69
2022/08/19 11:07:32;;;;;;;7.85;5.00;;;24.00;65.90;;;;;;5093087;28;20535;-66
2022/08/19 11:09:57;;;;;;;6.97;5.40;;;24.00;65.80;;;;;;5092891;28;20101;-66
2022/08/19 11:12:24;;;;;;;8.77;5.53;;;24.00;65.80;;;;;;5093110;28;20079;-66
2022/08/19 11:14:50;;;;;;;10.73;5.82;;;24.00;65.80;;;;;;5093703;28;20044;-66
2022/08/19 11:17:15;;;;;;;7.65;4.68;;;24.00;65.80;;;;;;5092347;28;20386;-66
2022/08/19 11:19:42;;;;;;;8.65;4.80;;;24.00;65.80;;;;;;5093008;28;20055;-66
2022/08/19 11:22:09;;;;;;;7.40;4.95;;;24.00;66.40;;;;;;5093444;28;20036;-65
2022/08/19 11:24:34;;;;;;;7.00;4.70;;;24.00;65.80;;;;;;5092332;28;20130;-66
2022/08/19 11:27:05;;;;;;;7.43;3.92;;;24.00;65.90;;;;;;5093526;28;20126;-65
2022/08/19 11:29:31;;;;;;;7.65;4.57;;;24.00;65.90;;;;;;5092830;28;20186;-66
2022/08/19 11:31:57;;;;;;;6.43;4.40;;;24.00;66.10;;;;;;5092618;28;20044;-66
2022/08/19 11:34:27;;;;;;;5.75;4.25;;;24.00;66.00;;;;;;5092829;28;20563;-66
2022/08/19 11:36:54;;;;;;;6.40;4.32;;;24.00;66.10;;;;;;5092510;28;20210;-66
2022/08/19 11:39:21;;;;;;;4.90;3.92;;;24.00;66.10;;;;;;5092865;28;20072;-66
2022/08/19 11:41:46;;;;;;;5.28;4.47;;;24.00;66.10;;;;;;5092943;28;20054;-67
2022/08/19 11:44:13;;;;;;;7.05;4.50;;;24.00;66.20;;;;;;5092164;28;20122;-66
2022/08/19 11:46:39;;;;;;;5.50;4.00;;;24.00;66.20;;;;;;5092063;28;20132;-66
2022/08/19 11:49:05;;;;;;;5.13;4.00;;;24.00;66.30;;;;;;5091180;28;20127;-66
2022/08/19 11:51:31;;;;;;;5.68;3.72;;;24.00;66.90;;;;;;5091550;28;20063;-67
2022/08/19 11:53:57;;;;;;;5.97;4.43;;;24.10;66.40;;;;;;5092418;28;20510;-66
2022/08/19 11:56:23;;;;;;;6.47;4.40;;;24.10;66.60;;;;;;5092299;28;20109;-67
2022/08/19 11:58:49;;;;;;;5.63;4.13;;;24.10;66.60;;;;;;5090618;28;20044;-66
2022/08/19 12:01:16;;;;;;;5.05;3.92;;;24.10;66.70;;;;;;5092471;28;20040;-66
2022/08/19 12:03:43;;;;;;;6.23;3.90;;;24.10;66.70;;;;;;5092401;28;20491;-67
2022/08/19 12:06:10;;;;;;;8.07;4.15;;;24.10;66.80;;;;;;5091989;28;20302;-66
2022/08/19 12:08:36;;;;;;;5.85;4.28;;;24.10;66.80;;;;;;5092263;28;20078;-66
2022/08/19 12:11:01;;;;;;;4.90;3.72;;;24.10;66.80;;;;;;5092513;28;20075;-67
2022/08/19 12:13:30;;;;;;;5.55;3.97;;;24.20;66.90;;;;;;5091022;28;20055;-66
2022/08/19 12:15:55;;;;;;;5.43;4.07;;;24.20;66.90;;;;;;5092523;28;20078;-67
2022/08/19 12:18:21;;;;;;;6.72;4.10;;;24.20;66.90;;;;;;5092060;28;20079;-67
2022/08/19 12:20:47;;;;;;;6.60;4.00;;;24.20;66.90;;;;;;5091343;28;20049;-66
2022/08/19 12:23:13;;;;;;;5.95;4.00;;;24.20;66.90;;;;;;5092407;28;20043;-68
2022/08/19 12:25:49;;;;;;;5.50;4.10;;;24.20;67.00;;;;;;5091968;28;20073;-67
2022/08/19 12:28:21;;;;;;;5.57;3.70;;;24.30;67.00;;;;;;5092266;28;20051;-67
2022/08/19 12:30:48;;;;;;;6.72;4.90;;;24.30;67.10;;;;;;5092085;28;20052;-68
2022/08/19 12:33:13;;;;;;;8.20;4.38;;;24.30;67.50;;;;;;5091568;28;20115;-69
2022/08/19 12:35:44;;;;;;;5.80;4.10;;;24.30;67.60;;;;;;5091647;28;20103;-67
2022/08/19 12:38:10;;;;;;;8.98;4.57;;;24.30;67.70;;;;;;5091864;28;20432;-57
2022/08/19 12:40:35;;;;;;;6.25;4.55;;;24.30;67.60;;;;;;5090889;28;20051;-58
2022/08/19 12:43:01;;;;;;;6.95;4.28;;;24.30;67.40;;;;;;5091932;28;20048;-58
2022/08/19 12:45:27;;;;;;;6.65;4.45;;;24.30;67.20;;;;;;5091385;28;20475;-59
2022/08/19 12:47:52;;;;;;;10.98;4.82;;;24.30;67.30;;;;;;5090923;28;20046;-64
2022/08/19 12:50:19;;;;;;;8.52;4.45;;;24.30;67.20;;;;;;5091256;28;20082;-63
2022/08/19 12:52:44;;;;;;;8.82;4.28;;;24.30;67.00;;;;;;5091951;28;20093;-66
2022/08/19 12:55:11;;;;;;;8.55;4.38;;;24.40;67.10;;;;;;5090165;28;20036;-67
2022/08/19 12:57:37;;;;;;;7.57;4.50;;;24.40;66.90;;;;;;5088658;28;20044;-65
2022/08/19 13:00:12;;;;;;;7.90;4.45;;;24.40;66.70;;;;;;5091696;28;20059;-65
2022/08/19 13:02:38;;;;;;;7.00;4.60;;;24.40;66.60;;;;;;5088189;28;20036;-66
2022/08/19 13:05:06;;;;;;;8.85;4.40;;;24.40;66.50;;;;;;5091734;28;20526;-70